Hauptseite
METAR-TAF:

METAR-TAF

Flughäfen :

Flughafen Basel-Mülhausen

Basel-Mülhausen, Frankreich

Breite: 47-36N, Länge: 007-31E, Höhe: 270 m

Beobachtung

Neuester Wetterbericht von vor 30 Minuten, um 08:00 UTC
Wind 8 kt aus Süd/Südost
Temperatur 9°C
Luftfeuchtigkeit 87%
Luftdruck 1022 hPa
Sichtweite: 6000 m

METAR: LFSB 280800Z 15008KT 6000 NSC 09/07 Q1022 NOSIG

Zeit: 10:30 (08:30 UTC)

Prognose

Neuester Wetterbericht von vor 3 Stunden und 30 Minuten, um 05:00 UTC
Gültige Prognose vom 28 um 06 UTC bis 29 um 06 UTC
Wind 6 kt aus Süd
Sichtweite: 3000 m
feuchter Dunst
Übergehend zu
vom 28 um 06 UTC bis 28 um 08 UTC
Sichtweite 10 km oder mehr
keine Wolken unter 1500 m und keine Kumulonimbus oder Gewitterwolken
Wahrscheinlichkeit 40%
vom 28 um 23 UTC bis 29 um 06 UTC
Sichtweite: 4000 m
feuchter Dunst

TAF: LFSB 280500Z 2806/2906 18006KT 3000 BR NSC BECMG 2806/2808 CAVOK PROB40 2823/2906 4000 BR

Wetterbeobachtungen und Prognosen von mehr als 4000 Flughäfen (METAR und TAF Bericht).

Die verfügbaren Stationen werden durch gelbe und rote Markierungen auf der Karte dargestellt.

Führen Sie die Maus auf sie, um den Namen der Station zu sehen.

Darauf klicken, um die Beobachtung von Wetterbeobachtungen und Prognosen zu sehen.

Um die Karte zu ändern : klicken Sie auf den grünen Tasten mit einem schwarzen Kreuz Zum Vergrößern, auf den grünen Button mit einem Gedankenstrich zu verkleinern, oder auf die grünen Pfeile für benachbarte Karten.


METAR-TAF: